createdAt,value
2018-04-30T00:00:47.002Z,19.90
2018-04-30T00:03:14.363Z,19.47
2018-04-30T00:05:41.745Z,19.75
2018-04-30T00:08:09.122Z,19.59
2018-04-30T00:10:36.495Z,19.40
2018-04-30T00:13:03.868Z,19.25
2018-04-30T00:15:31.246Z,19.05
2018-04-30T00:17:58.656Z,19.11
2018-04-30T00:20:26.034Z,18.90
2018-04-30T00:22:53.407Z,18.77
2018-04-30T00:25:20.782Z,18.85
2018-04-30T00:27:48.143Z,18.88
2018-04-30T00:30:15.547Z,18.86
2018-04-30T00:32:42.929Z,18.95
2018-04-30T00:35:10.304Z,18.80
2018-04-30T00:37:37.692Z,18.67
2018-04-30T00:40:05.074Z,18.51
2018-04-30T00:42:32.456Z,18.51
2018-04-30T00:44:59.847Z,18.68
2018-04-30T00:47:27.218Z,18.70
2018-04-30T00:49:54.590Z,18.46
2018-04-30T00:52:21.978Z,18.37
2018-04-30T00:55:00.090Z,18.25
2018-04-30T00:57:27.465Z,18.40
2018-04-30T00:59:54.835Z,18.28
2018-04-30T01:02:22.216Z,18.37
2018-04-30T01:04:49.591Z,18.49
2018-04-30T01:07:17.038Z,18.37
2018-04-30T01:09:44.425Z,18.17
2018-04-30T01:12:11.995Z,18.13
2018-04-30T01:14:39.368Z,18.09
2018-04-30T01:17:06.743Z,18.23
2018-04-30T01:19:34.119Z,18.01
2018-04-30T01:22:01.561Z,17.88
2018-04-30T01:24:28.911Z,17.83
2018-04-30T01:26:56.292Z,17.89
2018-04-30T01:29:23.662Z,17.87
2018-04-30T01:31:51.102Z,17.99
2018-04-30T01:34:18.488Z,17.67
2018-04-30T01:36:45.861Z,17.91
2018-04-30T01:39:13.243Z,17.96
2018-04-30T01:41:40.776Z,17.93
2018-04-30T01:44:08.211Z,17.90
2018-04-30T01:46:35.786Z,17.78
2018-04-30T01:49:03.160Z,17.89
2018-04-30T01:51:30.530Z,17.95
2018-04-30T01:53:57.902Z,17.69
2018-04-30T01:56:25.277Z,17.65
2018-04-30T01:58:52.667Z,17.74
2018-04-30T02:01:20.047Z,17.67
2018-04-30T02:03:47.440Z,17.79
2018-04-30T02:06:15.011Z,17.97
2018-04-30T02:08:42.400Z,17.73
2018-04-30T02:11:09.773Z,17.79
2018-04-30T02:13:37.158Z,17.88
2018-04-30T02:16:04.532Z,17.71
2018-04-30T02:18:31.961Z,17.71
2018-04-30T02:20:59.327Z,17.31
2018-04-30T02:23:26.721Z,17.24
2018-04-30T02:25:54.093Z,17.14
2018-04-30T02:28:21.659Z,17.21
2018-04-30T02:30:49.034Z,17.21
2018-04-30T02:33:16.414Z,17.16
2018-04-30T02:35:43.807Z,17.13
2018-04-30T02:38:11.205Z,17.09
2018-04-30T02:40:38.670Z,17.11
2018-04-30T02:43:06.084Z,16.94
2018-04-30T02:45:33.443Z,17.15
2018-04-30T02:48:00.940Z,17.24
2018-04-30T02:50:28.299Z,16.76
2018-04-30T02:52:55.675Z,16.96
2018-04-30T02:55:23.063Z,16.77
2018-04-30T02:57:50.471Z,16.75
2018-04-30T03:00:17.850Z,16.47
2018-04-30T03:02:45.231Z,16.73
2018-04-30T03:05:12.599Z,16.49
2018-04-30T03:07:39.982Z,16.58
2018-04-30T03:10:07.374Z,16.57
2018-04-30T03:12:34.735Z,16.53
2018-04-30T03:15:02.121Z,16.46
2018-04-30T03:17:29.491Z,16.52
2018-04-30T03:19:56.871Z,16.63
2018-04-30T03:22:24.247Z,16.55
2018-04-30T03:24:51.621Z,16.43
2018-04-30T03:27:19.000Z,16.36
2018-04-30T03:29:46.371Z,16.38
2018-04-30T03:32:13.739Z,16.30
2018-04-30T03:34:41.126Z,16.01
2018-04-30T03:37:08.568Z,15.99
2018-04-30T03:39:35.955Z,16.25
2018-04-30T03:42:03.338Z,16.39
2018-04-30T03:44:30.739Z,16.17
2018-04-30T03:46:58.115Z,16.29
2018-04-30T03:49:25.533Z,16.27
2018-04-30T03:51:52.919Z,16.25
2018-04-30T03:54:20.443Z,16.13
2018-04-30T03:56:47.827Z,16.04
2018-04-30T03:59:15.191Z,16.16
2018-04-30T04:01:54.207Z,16.21
2018-04-30T04:04:33.213Z,16.10
2018-04-30T04:07:00.582Z,16.30
2018-04-30T04:09:27.957Z,15.96
2018-04-30T04:11:55.336Z,15.80
2018-04-30T04:14:22.714Z,15.71
2018-04-30T04:16:50.082Z,15.81
2018-04-30T04:19:17.466Z,15.69
2018-04-30T04:21:44.831Z,15.66
2018-04-30T04:24:12.207Z,15.74
2018-04-30T04:26:39.590Z,15.45
2018-04-30T04:29:07.003Z,15.36
2018-04-30T04:31:34.354Z,15.59
2018-04-30T04:34:01.738Z,15.50
2018-04-30T04:36:29.117Z,15.57
2018-04-30T04:38:56.487Z,15.82
2018-04-30T04:41:23.854Z,15.45
2018-04-30T04:43:51.229Z,15.51
2018-04-30T04:46:18.617Z,15.51
2018-04-30T04:48:45.986Z,15.37
2018-04-30T04:51:13.370Z,15.38
2018-04-30T04:53:40.755Z,15.23
2018-04-30T04:56:08.141Z,15.37
2018-04-30T04:58:35.526Z,15.26
2018-04-30T05:01:02.902Z,15.25
2018-04-30T05:03:30.273Z,15.11
2018-04-30T05:05:57.663Z,14.93
2018-04-30T05:08:25.060Z,14.84
2018-04-30T05:10:52.484Z,14.82
2018-04-30T05:13:19.874Z,14.98
2018-04-30T05:15:47.269Z,14.89
2018-04-30T05:18:14.649Z,14.40
2018-04-30T05:20:42.045Z,13.87
2018-04-30T05:23:09.427Z,13.45
2018-04-30T05:25:37.006Z,13.73
2018-04-30T05:28:04.388Z,13.73
2018-04-30T05:30:31.759Z,13.81
2018-04-30T05:32:59.124Z,13.72
2018-04-30T05:35:26.563Z,14.12
2018-04-30T05:37:53.918Z,14.08
2018-04-30T05:40:21.333Z,14.37
2018-04-30T05:42:48.752Z,14.37
2018-04-30T05:45:16.124Z,14.30
2018-04-30T05:47:46.724Z,14.00
2018-04-30T05:50:16.761Z,14.01
2018-04-30T05:52:46.114Z,14.38
2018-04-30T05:55:13.650Z,14.00
2018-04-30T05:57:41.034Z,14.14
2018-04-30T06:00:08.411Z,14.39
2018-04-30T06:02:35.788Z,14.20
2018-04-30T06:05:03.179Z,14.20
2018-04-30T06:07:30.551Z,14.32
2018-04-30T06:09:57.943Z,14.62
2018-04-30T06:12:25.340Z,14.32
2018-04-30T06:14:52.743Z,14.42
2018-04-30T06:17:20.146Z,14.33
2018-04-30T06:19:47.532Z,14.50
2018-04-30T06:22:14.913Z,14.33
2018-04-30T06:24:42.342Z,14.41
2018-04-30T06:27:09.850Z,14.49
2018-04-30T06:29:37.708Z,14.56
2018-04-30T06:32:05.107Z,14.52
2018-04-30T06:34:32.573Z,14.60
2018-04-30T06:36:59.948Z,14.53
2018-04-30T06:39:27.352Z,14.37
2018-04-30T06:41:54.743Z,14.60
2018-04-30T06:44:22.120Z,14.48
2018-04-30T06:46:49.529Z,14.86
2018-04-30T06:49:16.912Z,14.71
2018-04-30T06:51:44.347Z,15.00
2018-04-30T06:54:11.726Z,14.75
2018-04-30T06:56:39.116Z,15.12
2018-04-30T06:59:06.506Z,15.06
2018-04-30T07:01:33.888Z,15.13
2018-04-30T07:04:01.255Z,15.38
2018-04-30T07:06:28.715Z,15.45
2018-04-30T07:08:56.087Z,15.20
2018-04-30T07:11:23.492Z,14.84
2018-04-30T07:13:50.861Z,15.18
2018-04-30T07:16:18.237Z,15.27
2018-04-30T07:18:45.721Z,15.52
2018-04-30T07:21:13.124Z,15.52
2018-04-30T07:23:40.516Z,15.12
2018-04-30T07:26:07.898Z,15.10
2018-04-30T07:28:35.283Z,15.27
2018-04-30T07:31:02.679Z,15.25
2018-04-30T07:33:30.062Z,15.15
2018-04-30T07:35:57.455Z,15.16
2018-04-30T07:38:24.879Z,15.14
2018-04-30T07:40:52.270Z,15.06
2018-04-30T07:43:20.959Z,14.98
2018-04-30T07:45:48.364Z,15.21
2018-04-30T07:48:16.009Z,15.50
2018-04-30T07:50:43.440Z,15.34
2018-04-30T07:53:10.930Z,15.57
2018-04-30T07:55:38.329Z,15.41
2018-04-30T07:58:05.720Z,15.37
2018-04-30T08:00:33.115Z,15.12
2018-04-30T08:03:00.598Z,15.41
2018-04-30T08:05:27.936Z,15.41
2018-04-30T08:07:55.311Z,15.24
2018-04-30T08:10:22.684Z,15.27
2018-04-30T08:12:50.061Z,15.13
2018-04-30T08:15:17.449Z,15.14
2018-04-30T08:17:44.822Z,15.10
2018-04-30T08:20:12.270Z,15.15
2018-04-30T08:22:39.663Z,15.43
2018-04-30T08:25:07.102Z,15.65
2018-04-30T08:27:35.121Z,15.66
2018-04-30T08:30:02.564Z,15.85
2018-04-30T08:32:30.977Z,15.81
2018-04-30T08:34:58.362Z,15.47
2018-04-30T08:37:25.740Z,15.60
2018-04-30T08:39:53.136Z,15.61
2018-04-30T08:42:20.517Z,15.86
2018-04-30T08:44:47.922Z,15.73
2018-04-30T08:47:15.338Z,15.53
2018-04-30T08:49:42.717Z,15.89
2018-04-30T08:52:10.137Z,15.91
2018-04-30T08:54:37.507Z,16.36
2018-04-30T08:57:04.891Z,16.87
2018-04-30T08:59:32.467Z,16.55
2018-04-30T09:01:59.852Z,16.24
2018-04-30T09:04:27.232Z,16.34
2018-04-30T09:06:54.622Z,16.19
2018-04-30T09:09:22.684Z,16.03
2018-04-30T09:11:50.156Z,16.46
2018-04-30T09:14:19.062Z,16.70
2018-04-30T09:16:46.445Z,16.68
2018-04-30T09:19:13.823Z,16.85
2018-04-30T09:21:41.205Z,16.91
2018-04-30T09:24:08.593Z,16.79
2018-04-30T09:26:35.982Z,16.35
2018-04-30T09:29:03.353Z,16.83
2018-04-30T09:31:30.728Z,17.23
2018-04-30T09:33:58.123Z,17.44
2018-04-30T09:36:25.611Z,17.38
2018-04-30T09:38:52.996Z,17.48
2018-04-30T09:41:20.432Z,17.04
2018-04-30T09:43:47.818Z,17.22
2018-04-30T09:46:15.179Z,17.17
2018-04-30T09:48:42.960Z,17.29
2018-04-30T09:51:10.343Z,17.29
2018-04-30T09:53:37.736Z,17.44
2018-04-30T09:56:05.112Z,17.02
2018-04-30T09:58:32.517Z,16.74
2018-04-30T10:00:59.884Z,16.96
2018-04-30T10:03:27.264Z,17.02
2018-04-30T10:05:54.647Z,17.19
2018-04-30T10:08:22.026Z,17.10
2018-04-30T10:10:49.397Z,17.09
2018-04-30T10:13:16.795Z,17.72
2018-04-30T10:15:44.192Z,17.88
2018-04-30T10:18:11.874Z,17.35
2018-04-30T10:20:39.275Z,17.70
2018-04-30T10:23:06.753Z,17.51
2018-04-30T10:25:34.133Z,17.81
2018-04-30T10:28:01.526Z,18.17
2018-04-30T10:30:28.992Z,18.49
2018-04-30T10:32:56.401Z,18.29
2018-04-30T10:35:23.775Z,18.28
2018-04-30T10:37:52.227Z,17.96
2018-04-30T10:40:19.579Z,17.59
2018-04-30T10:42:47.151Z,17.52
2018-04-30T10:45:14.523Z,17.55
2018-04-30T10:47:42.785Z,17.34
2018-04-30T10:50:10.285Z,17.33
2018-04-30T10:52:37.926Z,17.53
2018-04-30T10:55:05.303Z,17.58
2018-04-30T10:57:32.704Z,17.68
2018-04-30T11:00:00.158Z,17.78
2018-04-30T11:02:27.486Z,17.71
2018-04-30T11:04:54.883Z,18.13
2018-04-30T11:07:22.258Z,18.13
2018-04-30T11:09:49.667Z,18.21
2018-04-30T11:12:17.877Z,18.31
2018-04-30T11:14:45.288Z,18.20
2018-04-30T11:17:12.824Z,18.17
2018-04-30T11:19:40.293Z,18.04
2018-04-30T11:22:07.702Z,18.14
2018-04-30T11:24:35.257Z,17.97
2018-04-30T11:27:02.623Z,18.14
2018-04-30T11:29:30.075Z,18.45
2018-04-30T11:31:57.473Z,18.34
2018-04-30T11:34:24.900Z,18.13
2018-04-30T11:36:52.352Z,18.50
2018-04-30T11:39:19.824Z,18.36
2018-04-30T11:41:47.221Z,18.78
2018-04-30T11:44:14.615Z,19.74
2018-04-30T11:46:42.139Z,19.49
2018-04-30T11:49:09.584Z,19.74
2018-04-30T11:51:36.989Z,20.35
2018-04-30T11:54:04.479Z,20.29
2018-04-30T11:56:31.866Z,19.97
2018-04-30T11:58:59.257Z,19.69
2018-04-30T12:01:26.671Z,19.92
2018-04-30T12:03:54.043Z,20.26
2018-04-30T12:06:21.417Z,20.86
2018-04-30T12:08:48.835Z,20.93
2018-04-30T12:11:16.360Z,20.64
2018-04-30T12:13:43.759Z,21.28
2018-04-30T12:16:11.179Z,21.34
2018-04-30T12:18:38.556Z,21.20
2018-04-30T12:21:05.966Z,22.14
2018-04-30T12:23:33.326Z,21.47
2018-04-30T12:26:00.729Z,22.11
2018-04-30T12:28:28.215Z,22.12
2018-04-30T12:30:55.598Z,20.64
2018-04-30T12:33:23.124Z,20.46
2018-04-30T12:35:50.497Z,20.22
2018-04-30T12:38:17.873Z,20.16
2018-04-30T12:40:45.259Z,19.47
2018-04-30T12:43:12.677Z,19.77
2018-04-30T12:45:40.160Z,19.59
2018-04-30T12:48:07.522Z,19.30
2018-04-30T12:50:34.960Z,19.49
2018-04-30T12:53:02.356Z,21.11
2018-04-30T12:55:29.743Z,21.19
2018-04-30T12:57:57.128Z,19.98
2018-04-30T13:00:24.547Z,19.97
2018-04-30T13:02:51.982Z,19.56
2018-04-30T13:05:19.369Z,21.77
2018-04-30T13:07:46.744Z,21.74
2018-04-30T13:10:14.136Z,20.32
2018-04-30T13:12:41.585Z,21.56
2018-04-30T13:15:08.959Z,21.06
2018-04-30T13:17:36.339Z,23.01
2018-04-30T13:20:03.719Z,22.61
2018-04-30T13:22:31.091Z,22.67
2018-04-30T13:24:58.537Z,21.80
2018-04-30T13:27:25.933Z,22.73
2018-04-30T13:29:53.304Z,23.71
2018-04-30T13:32:20.690Z,24.48
2018-04-30T13:34:48.079Z,23.17
2018-04-30T13:37:15.517Z,23.24
2018-04-30T13:39:48.662Z,23.64
2018-04-30T13:42:20.179Z,24.62
2018-04-30T13:44:47.715Z,24.75
2018-04-30T13:47:15.106Z,24.29
2018-04-30T13:49:42.511Z,21.96
2018-04-30T13:52:09.884Z,21.96
2018-04-30T13:54:37.326Z,21.52
2018-04-30T13:57:04.719Z,23.14
2018-04-30T13:59:32.140Z,24.09
2018-04-30T14:01:59.533Z,24.51
2018-04-30T14:04:26.896Z,23.74
2018-04-30T14:06:57.517Z,23.93
2018-04-30T14:09:29.840Z,23.99
2018-04-30T14:11:58.491Z,23.41
2018-04-30T14:14:25.863Z,22.73
2018-04-30T14:16:53.282Z,21.25
2018-04-30T14:19:20.713Z,21.19
2018-04-30T14:21:48.107Z,20.84
2018-04-30T14:24:15.500Z,20.71
2018-04-30T14:26:42.889Z,20.61
2018-04-30T14:29:10.278Z,20.86
2018-04-30T14:31:37.749Z,20.47
2018-04-30T14:34:05.062Z,20.56
2018-04-30T14:36:32.442Z,20.55
2018-04-30T14:38:59.832Z,20.99
2018-04-30T14:41:27.232Z,21.47
2018-04-30T14:43:54.627Z,20.78
2018-04-30T14:46:22.086Z,22.29
2018-04-30T14:48:49.460Z,22.85
2018-04-30T14:51:16.892Z,23.74
2018-04-30T14:53:44.234Z,23.95
2018-04-30T14:56:11.625Z,23.16
2018-04-30T14:58:38.999Z,24.61
2018-04-30T15:01:06.375Z,24.64
2018-04-30T15:03:33.756Z,23.45
2018-04-30T15:06:01.132Z,22.73
2018-04-30T15:08:28.601Z,23.57
2018-04-30T15:10:55.969Z,24.84
2018-04-30T15:13:23.377Z,24.39
2018-04-30T15:15:50.813Z,22.88
2018-04-30T15:18:18.226Z,24.40
2018-04-30T15:20:45.646Z,24.08
2018-04-30T15:23:13.126Z,23.66
2018-04-30T15:25:40.666Z,24.67
2018-04-30T15:28:08.048Z,24.98
2018-04-30T15:30:35.779Z,25.10
2018-04-30T15:33:03.180Z,22.70
2018-04-30T15:35:30.590Z,22.70
2018-04-30T15:37:58.004Z,21.92
2018-04-30T15:40:25.372Z,23.18
2018-04-30T15:42:52.755Z,22.10
2018-04-30T15:45:20.473Z,23.39
2018-04-30T15:47:47.900Z,23.76
2018-04-30T15:50:15.255Z,24.19
2018-04-30T15:52:42.645Z,24.59
2018-04-30T15:55:10.061Z,25.89
2018-04-30T15:57:39.248Z,25.22
2018-04-30T16:00:06.758Z,25.23
2018-04-30T16:02:34.289Z,26.13
2018-04-30T16:05:03.888Z,24.93
2018-04-30T16:07:31.448Z,25.70
2018-04-30T16:09:58.833Z,24.70
2018-04-30T16:12:26.221Z,23.73
2018-04-30T16:14:53.603Z,22.95
2018-04-30T16:17:20.981Z,22.24
2018-04-30T16:19:48.364Z,21.34
2018-04-30T16:22:15.754Z,21.45
2018-04-30T16:24:43.191Z,21.37
2018-04-30T16:27:10.563Z,20.70
2018-04-30T16:29:37.972Z,20.07
2018-04-30T16:32:05.384Z,19.36
2018-04-30T16:34:32.784Z,19.33
2018-04-30T16:37:00.183Z,18.99
2018-04-30T16:39:27.615Z,18.81
2018-04-30T16:41:55.132Z,18.59
2018-04-30T16:44:22.622Z,18.26
2018-04-30T16:46:50.000Z,17.84
2018-04-30T16:49:17.491Z,18.10
2018-04-30T16:51:44.875Z,18.33
2018-04-30T16:54:12.327Z,18.63
2018-04-30T16:56:39.720Z,18.69
2018-04-30T16:59:07.142Z,18.58
2018-04-30T17:01:34.553Z,18.65
2018-04-30T17:04:01.943Z,19.03
2018-04-30T17:06:29.339Z,18.94
2018-04-30T17:08:56.721Z,18.66
2018-04-30T17:11:24.088Z,18.40
2018-04-30T17:13:51.471Z,18.20
2018-04-30T17:16:18.928Z,18.01
2018-04-30T17:18:46.336Z,18.40
2018-04-30T17:21:13.734Z,17.88
2018-04-30T17:23:41.286Z,17.85
2018-04-30T17:26:08.970Z,17.51
2018-04-30T17:28:36.371Z,17.36
2018-04-30T17:31:03.757Z,17.64
2018-04-30T17:33:31.123Z,17.37
2018-04-30T17:35:58.530Z,17.27
2018-04-30T17:38:25.920Z,17.20
2018-04-30T17:40:53.331Z,17.38
2018-04-30T17:43:20.710Z,17.46
2018-04-30T17:45:48.103Z,17.16
2018-04-30T17:48:15.500Z,17.64
2018-04-30T17:50:42.883Z,17.53
2018-04-30T17:53:10.249Z,17.11
2018-04-30T17:55:37.650Z,17.20
2018-04-30T17:58:05.021Z,16.87
2018-04-30T18:00:32.392Z,16.38
2018-04-30T18:02:59.830Z,16.84
2018-04-30T18:05:27.208Z,16.65
2018-04-30T18:07:54.598Z,16.43
2018-04-30T18:10:22.012Z,16.36
2018-04-30T18:12:49.477Z,16.16
2018-04-30T18:15:37.655Z,16.37
2018-04-30T18:18:05.150Z,16.21
2018-04-30T18:20:33.354Z,16.04
2018-04-30T18:23:00.723Z,16.20
2018-04-30T18:25:28.133Z,16.18
2018-04-30T18:27:55.506Z,15.97
2018-04-30T18:30:22.918Z,15.96
2018-04-30T18:32:50.299Z,15.82
2018-04-30T18:35:17.691Z,15.71
2018-04-30T18:37:45.063Z,15.77
2018-04-30T18:40:12.443Z,15.81
2018-04-30T18:42:39.829Z,15.77
2018-04-30T18:45:07.204Z,15.55
2018-04-30T18:47:34.660Z,15.55
2018-04-30T18:50:02.016Z,15.35
2018-04-30T18:52:29.406Z,15.47
2018-04-30T18:54:56.786Z,15.39
2018-04-30T18:57:24.177Z,15.42
2018-04-30T18:59:51.553Z,15.40
2018-04-30T19:02:18.942Z,15.34
2018-04-30T19:04:46.323Z,15.43
2018-04-30T19:07:13.711Z,15.28
2018-04-30T19:09:41.259Z,15.20
2018-04-30T19:12:08.628Z,15.24
2018-04-30T19:14:36.003Z,15.20
2018-04-30T19:17:03.394Z,15.33
2018-04-30T19:19:30.808Z,15.17
2018-04-30T19:21:58.168Z,15.00
2018-04-30T19:24:25.560Z,14.96
2018-04-30T19:26:52.955Z,15.15
2018-04-30T19:29:20.472Z,15.07
2018-04-30T19:31:47.967Z,14.94
2018-04-30T19:34:15.353Z,15.18
2018-04-30T19:36:42.760Z,15.10
2018-04-30T19:39:10.141Z,15.11
2018-04-30T19:41:37.534Z,14.85
2018-04-30T19:44:05.874Z,14.76
2018-04-30T19:46:33.247Z,14.75
2018-04-30T19:49:00.686Z,14.87
2018-04-30T19:51:28.075Z,14.76
2018-04-30T19:53:55.540Z,14.77
2018-04-30T19:56:22.925Z,14.78
2018-04-30T19:58:50.347Z,14.88
2018-04-30T20:01:17.736Z,14.78
2018-04-30T20:03:45.258Z,14.77
2018-04-30T20:06:12.623Z,14.73
2018-04-30T20:08:40.023Z,14.76
2018-04-30T20:11:07.400Z,14.63
2018-04-30T20:13:40.689Z,14.71
2018-04-30T20:16:08.184Z,14.57
2018-04-30T20:18:35.570Z,14.43
2018-04-30T20:21:02.987Z,14.50
2018-04-30T20:23:30.436Z,14.48
2018-04-30T20:25:57.915Z,14.34
2018-04-30T20:28:25.321Z,14.42
2018-04-30T20:30:53.276Z,14.37
2018-04-30T20:33:20.656Z,14.25
2018-04-30T20:35:48.169Z,14.40
2018-04-30T20:38:15.656Z,14.31
2018-04-30T20:40:43.042Z,14.34
2018-04-30T20:43:10.432Z,14.28
2018-04-30T20:45:37.811Z,14.32
2018-04-30T20:48:05.188Z,14.51
2018-04-30T20:50:32.684Z,14.46
2018-04-30T20:52:59.976Z,14.33
2018-04-30T20:55:27.353Z,14.49
2018-04-30T20:57:55.121Z,14.49
2018-04-30T21:00:22.539Z,14.52
2018-04-30T21:02:49.917Z,14.56
2018-04-30T21:05:17.307Z,14.56
2018-04-30T21:07:44.723Z,14.70
2018-04-30T21:10:12.117Z,14.27
2018-04-30T21:12:39.517Z,14.37
2018-04-30T21:15:06.992Z,14.25
2018-04-30T21:17:34.575Z,13.94
2018-04-30T21:20:01.848Z,14.08
2018-04-30T21:22:29.393Z,14.08
2018-04-30T21:24:56.801Z,14.14
2018-04-30T21:27:24.259Z,14.23
2018-04-30T21:29:51.612Z,14.10
2018-04-30T21:32:19.159Z,14.01
2018-04-30T21:34:51.235Z,13.90
2018-04-30T21:37:18.714Z,13.90
2018-04-30T21:39:46.219Z,13.80
2018-04-30T21:42:14.263Z,13.82
2018-04-30T21:44:41.639Z,13.72
2018-04-30T21:47:09.032Z,13.78
2018-04-30T21:49:36.421Z,13.67
2018-04-30T21:52:03.833Z,13.98
2018-04-30T21:54:31.273Z,13.89
2018-04-30T21:56:58.644Z,13.67
2018-04-30T21:59:26.076Z,13.52
2018-04-30T22:01:53.468Z,13.74
2018-04-30T22:04:20.862Z,13.74
2018-04-30T22:06:48.252Z,13.73
2018-04-30T22:09:15.639Z,13.85
2018-04-30T22:11:43.051Z,13.65
2018-04-30T22:14:10.443Z,13.44
2018-04-30T22:16:37.839Z,13.32
2018-04-30T22:19:05.202Z,13.58
2018-04-30T22:21:32.599Z,13.09
2018-04-30T22:23:59.990Z,13.42
2018-04-30T22:26:27.372Z,13.17
2018-04-30T22:28:54.770Z,13.25
2018-04-30T22:31:22.162Z,13.15
2018-04-30T22:33:49.598Z,13.24
2018-04-30T22:36:16.998Z,13.10
2018-04-30T22:38:44.399Z,12.98
2018-04-30T22:41:11.793Z,12.94
2018-04-30T22:43:39.179Z,12.88
2018-04-30T22:46:06.552Z,12.94
2018-04-30T22:48:33.940Z,12.78
2018-04-30T22:51:01.312Z,12.86
2018-04-30T22:53:28.775Z,12.73
2018-04-30T22:55:56.318Z,12.95
2018-04-30T22:58:23.699Z,12.89
2018-04-30T23:00:51.179Z,12.91
2018-04-30T23:03:18.571Z,12.81
2018-04-30T23:05:45.959Z,12.75
2018-04-30T23:08:13.326Z,12.89
2018-04-30T23:10:40.735Z,12.73
2018-04-30T23:13:08.107Z,12.72
2018-04-30T23:15:35.486Z,12.75
2018-04-30T23:18:02.855Z,12.52
2018-04-30T23:20:30.306Z,12.39
2018-04-30T23:22:57.720Z,12.45
2018-04-30T23:25:25.076Z,12.60
2018-04-30T23:27:52.469Z,12.33
2018-04-30T23:30:19.859Z,12.45
2018-04-30T23:32:47.266Z,12.25
2018-04-30T23:35:14.714Z,12.26
2018-04-30T23:37:42.023Z,12.41
2018-04-30T23:40:09.412Z,12.08
2018-04-30T23:42:36.800Z,12.15
2018-04-30T23:45:04.211Z,12.16
2018-04-30T23:47:31.716Z,12.15
2018-04-30T23:49:59.104Z,12.11
2018-04-30T23:52:26.521Z,12.10
2018-04-30T23:54:53.891Z,12.10
2018-04-30T23:57:21.286Z,12.03
2018-04-30T23:59:48.673Z,12.07
